createdAt,value
2022-08-03T00:08:19.599Z,101436.13
2022-08-03T00:18:22.807Z,101433.97
2022-08-03T00:28:27.672Z,101434.28
2022-08-03T00:38:33.537Z,101426.75
2022-08-03T00:48:38.170Z,101431.94
2022-08-03T00:58:41.249Z,101419.09
2022-08-03T01:08:49.659Z,101415.84
2022-08-03T01:18:59.964Z,101407.38
2022-08-03T01:29:22.724Z,101403.91
2022-08-03T01:39:30.038Z,101404.84
2022-08-03T01:49:36.734Z,101397.75
2022-08-03T01:59:43.159Z,101401.25
2022-08-03T02:09:50.999Z,101396.16
2022-08-03T02:19:57.541Z,101396.44
2022-08-03T02:30:05.886Z,101403.78
2022-08-03T02:40:12.812Z,101384.06
2022-08-03T02:50:18.178Z,101392.00
2022-08-03T03:00:28.090Z,101383.97
2022-08-03T03:10:32.398Z,101378.78
2022-08-03T03:20:38.607Z,101384.31
2022-08-03T03:30:41.619Z,101379.50
2022-08-03T03:40:46.412Z,101377.19
2022-08-03T03:50:50.872Z,101371.38
2022-08-03T04:00:55.036Z,101382.81
2022-08-03T04:11:08.149Z,101367.13
2022-08-03T04:21:16.300Z,101373.19
2022-08-03T04:31:23.195Z,101373.13
2022-08-03T04:41:28.882Z,101378.16
2022-08-03T04:51:34.764Z,101382.28
2022-08-03T05:01:40.558Z,101397.84
2022-08-03T05:11:44.615Z,101404.44
2022-08-03T05:21:52.899Z,101415.22
2022-08-03T05:31:56.611Z,101417.28
2022-08-03T05:42:01.259Z,101418.31
2022-08-03T05:52:12.076Z,101415.72
2022-08-03T06:02:21.035Z,101420.78
2022-08-03T06:12:24.123Z,101415.16
2022-08-03T06:22:28.487Z,101413.09
2022-08-03T06:32:31.450Z,101407.63
2022-08-03T06:42:35.775Z,101421.28
2022-08-03T06:52:41.215Z,101423.59
2022-08-03T07:02:46.079Z,101431.91
2022-08-03T07:12:55.660Z,101435.34
2022-08-03T07:23:00.969Z,101435.19
2022-08-03T07:33:06.262Z,101455.47
2022-08-03T07:43:10.712Z,101443.00
2022-08-03T07:53:13.926Z,101433.31
2022-08-03T08:03:18.213Z,101424.50
2022-08-03T08:13:21.146Z,101431.94
2022-08-03T08:23:41.948Z,101425.47
2022-08-03T08:34:03.670Z,101428.06
2022-08-03T08:44:10.358Z,101413.19
2022-08-03T08:54:14.786Z,101416.81
2022-08-03T09:04:19.327Z,101416.59
2022-08-03T09:14:39.329Z,101412.25
2022-08-03T09:25:22.779Z,101417.44
2022-08-03T09:35:51.547Z,101417.66
2022-08-03T09:46:04.136Z,101409.91
2022-08-03T09:56:34.775Z,101404.91
2022-08-03T10:06:31.738Z,101404.50
2022-08-03T10:16:40.521Z,101398.56
2022-08-03T10:26:49.968Z,101394.28
2022-08-03T10:36:56.954Z,101390.06
2022-08-03T10:47:02.675Z,101371.56
2022-08-03T10:57:23.847Z,101362.75
2022-08-03T11:07:29.129Z,101352.16
2022-08-03T11:17:33.794Z,101353.44
2022-08-03T11:28:26.746Z,101342.94
2022-08-03T11:38:29.989Z,101349.59
2022-08-03T11:48:43.171Z,101340.22
2022-08-03T11:59:01.342Z,101342.53
2022-08-03T12:09:18.474Z,101341.75
2022-08-03T12:19:24.501Z,101338.53
2022-08-03T12:29:29.179Z,101340.28
2022-08-03T12:39:32.169Z,101339.34
2022-08-03T12:49:49.664Z,101336.94
2022-08-03T13:00:21.524Z,101335.34
2022-08-03T13:10:53.648Z,101334.44
2022-08-03T13:20:59.766Z,101322.22
2022-08-03T13:31:10.371Z,101314.41
2022-08-03T13:41:15.561Z,101311.16
2022-08-03T13:51:29.140Z,101318.59
2022-08-03T14:01:54.217Z,101306.25
2022-08-03T14:12:07.829Z,101293.66
2022-08-03T14:22:11.786Z,101286.81
2022-08-03T14:32:16.193Z,101285.25
2022-08-03T14:42:20.517Z,101264.63
2022-08-03T14:52:25.205Z,101250.91
2022-08-03T15:02:30.452Z,101245.53
2022-08-03T15:12:34.909Z,101227.50
2022-08-03T15:22:40.524Z,101231.44
2022-08-03T15:32:47.255Z,101220.31
2022-08-03T15:42:56.109Z,101218.84
2022-08-03T15:53:04.690Z,101198.03
2022-08-03T16:03:11.283Z,101205.75
2022-08-03T16:13:22.800Z,101198.19
2022-08-03T16:23:47.566Z,101190.88
2022-08-03T16:33:52.281Z,101190.28
2022-08-03T16:43:55.617Z,101187.97
2022-08-03T16:54:05.756Z,101186.31
2022-08-03T17:04:13.437Z,101183.53
2022-08-03T17:14:21.827Z,101174.34
2022-08-03T17:24:29.650Z,101174.00
2022-08-03T17:34:34.348Z,101177.53
2022-08-03T17:44:46.408Z,101177.97
2022-08-03T17:55:50.608Z,101176.53
2022-08-03T18:06:11.533Z,101169.94
2022-08-03T18:16:13.908Z,101172.41
2022-08-03T18:26:18.672Z,101173.31
2022-08-03T18:36:30.224Z,101174.75
2022-08-03T18:46:46.832Z,101166.41
2022-08-03T18:56:55.319Z,101184.53
2022-08-03T19:07:06.999Z,101201.59
2022-08-03T19:17:21.362Z,101197.16
2022-08-03T19:27:27.404Z,101202.25
2022-08-03T19:37:38.323Z,101222.47
2022-08-03T19:47:48.684Z,101225.28
2022-08-03T19:57:57.089Z,101219.88
2022-08-03T20:08:02.150Z,101219.34
2022-08-03T20:18:06.692Z,101229.91
2022-08-03T20:28:27.139Z,101222.84
2022-08-03T20:38:31.598Z,101228.69
2022-08-03T20:48:36.754Z,101223.25
2022-08-03T20:58:41.739Z,101236.56
2022-08-03T21:08:49.045Z,101223.72
2022-08-03T21:18:54.475Z,101216.16
2022-08-03T21:28:58.065Z,101208.34
2022-08-03T21:39:03.195Z,101196.31
2022-08-03T21:50:06.720Z,101193.25
2022-08-03T21:59:37.551Z,101192.72
2022-08-03T22:09:40.839Z,101192.41
2022-08-03T22:19:55.914Z,101188.00
2022-08-03T22:29:59.651Z,101179.34
2022-08-03T22:40:08.151Z,101180.25
2022-08-03T22:50:31.647Z,101177.41
2022-08-03T23:00:37.682Z,101163.06
2022-08-03T23:10:46.309Z,101168.03
2022-08-03T23:20:53.345Z,101158.13
2022-08-03T23:30:57.571Z,101165.75
2022-08-03T23:41:03.643Z,101155.97
2022-08-03T23:51:11.317Z,101156.28
